Time;durP1;ratioP1;P1;durP2;ratioP2;P2;SDS_P1;SDS_P2;PMS_P1;PMS_P2;Temp;Humidity;BMP_temperature;BMP_pressure;BME280_temperature;BME280_humidity;BME280_pressure;Samples;Min_cycle;Max_cycle;Signal;HPM_P1;HPM_P2
2022/12/05 00:00:17;;;;;;;48.38;27.15;;;5.60;94.70;;;;;;5053243;28;20063;-73
2022/12/05 00:02:43;;;;;;;45.47;25.10;;;5.60;95.20;;;;;;5044767;28;20021;-74
2022/12/05 00:05:10;;;;;;;49.67;28.75;;;5.60;95.30;;;;;;5049819;28;20032;-73
2022/12/05 00:07:36;;;;;;;56.38;33.25;;;5.50;95.20;;;;;;5046744;28;20108;-74
2022/12/05 00:10:04;;;;;;;56.13;31.95;;;5.50;95.00;;;;;;5034451;28;20041;-74
2022/12/05 00:12:29;;;;;;;38.60;23.17;;;5.50;94.90;;;;;;5050574;28;20086;-75
2022/12/05 00:14:55;;;;;;;50.63;29.52;;;5.50;95.10;;;;;;5052090;28;20048;-74
2022/12/05 00:17:21;;;;;;;56.92;29.77;;;5.50;95.10;;;;;;5048975;28;20087;-74
2022/12/05 00:19:46;;;;;;;49.72;28.33;;;5.50;95.00;;;;;;5031398;28;20476;-74
2022/12/05 00:22:12;;;;;;;42.60;22.48;;;5.50;95.00;;;;;;5051480;28;20135;-74
2022/12/05 00:24:38;;;;;;;47.30;27.02;;;5.50;95.20;;;;;;5049692;28;20067;-74
2022/12/05 00:27:04;;;;;;;39.00;19.52;;;5.50;95.20;;;;;;5051810;28;20025;-74
2022/12/05 00:29:30;;;;;;;40.38;22.08;;;5.60;95.50;;;;;;5048272;28;20036;-74
2022/12/05 00:31:56;;;;;;;69.28;37.00;;;5.60;95.50;;;;;;5038331;28;20021;-75
2022/12/05 00:34:21;;;;;;;61.05;34.00;;;5.50;95.50;;;;;;5045945;28;20025;-75
2022/12/05 00:36:47;;;;;;;69.95;40.72;;;5.60;95.80;;;;;;5034283;28;20326;-74
2022/12/05 00:39:14;;;;;;;60.95;35.22;;;5.60;95.30;;;;;;5046714;28;20029;-74
2022/12/05 00:41:41;;;;;;;54.17;30.55;;;5.60;95.10;;;;;;5040324;28;20111;-74
2022/12/05 00:44:07;;;;;;;57.92;33.40;;;5.60;95.00;;;;;;5042428;28;20468;-74
2022/12/05 00:46:34;;;;;;;55.22;30.05;;;5.60;95.10;;;;;;5034412;28;20116;-75
2022/12/05 00:49:01;;;;;;;30.13;17.73;;;5.60;95.20;;;;;;5048072;28;20527;-75
2022/12/05 00:51:30;;;;;;;60.25;33.42;;;5.60;95.60;;;;;;5051946;28;20039;-74
2022/12/05 00:54:05;;;;;;;33.60;19.98;;;5.60;95.50;;;;;;5032069;28;20047;-74
2022/12/05 00:56:31;;;;;;;58.58;33.65;;;5.60;95.70;;;;;;5050705;28;20032;-74
2022/12/05 00:58:58;;;;;;;53.05;30.77;;;5.50;95.30;;;;;;5049946;28;20028;-73
2022/12/05 01:01:25;;;;;;;38.15;22.02;;;5.50;95.30;;;;;;5050983;28;20025;-73
2022/12/05 01:03:53;;;;;;;47.58;26.83;;;5.50;95.40;;;;;;5044952;28;20021;-75
2022/12/05 01:06:19;;;;;;;40.75;23.25;;;5.60;95.70;;;;;;5050443;28;20023;-74
2022/12/05 01:08:46;;;;;;;48.30;27.00;;;5.60;95.80;;;;;;5050810;28;20051;-75
2022/12/05 01:11:17;;;;;;;60.72;34.05;;;5.60;95.60;;;;;;5046199;28;20491;-74
2022/12/05 01:13:43;;;;;;;55.13;30.95;;;5.60;95.50;;;;;;5051201;28;20510;-74
2022/12/05 01:16:21;;;;;;;37.25;21.48;;;5.70;95.60;;;;;;5048065;28;20021;-74
2022/12/05 01:18:47;;;;;;;63.70;35.53;;;5.60;95.70;;;;;;5039208;28;20037;-73
2022/12/05 01:21:13;;;;;;;46.47;26.05;;;5.60;95.80;;;;;;5031342;28;20108;-75
2022/12/05 01:23:39;;;;;;;63.97;36.83;;;5.60;95.60;;;;;;5052558;28;20047;-74
2022/12/05 01:26:07;;;;;;;67.55;40.05;;;5.60;95.60;;;;;;5050978;28;20017;-75
2022/12/05 01:28:34;;;;;;;39.95;22.33;;;5.60;95.40;;;;;;5051233;28;20028;-74
2022/12/05 01:31:05;;;;;;;45.80;25.58;;;5.70;95.90;;;;;;5040735;28;20040;-74
2022/12/05 01:33:30;;;;;;;58.38;34.33;;;5.70;95.90;;;;;;5049885;28;20031;-74
2022/12/05 01:35:56;;;;;;;31.15;17.13;;;5.60;95.60;;;;;;5046208;28;20025;-74
2022/12/05 01:38:22;;;;;;;65.03;38.95;;;5.70;95.80;;;;;;5042776;28;20022;-74
2022/12/05 01:40:47;;;;;;;58.33;32.67;;;5.70;95.50;;;;;;5039177;28;20049;-74
2022/12/05 01:43:15;;;;;;;59.30;33.53;;;5.70;95.70;;;;;;5048258;28;20029;-75
2022/12/05 01:45:44;;;;;;;63.33;35.00;;;5.60;95.30;;;;;;5046360;28;20025;-75
2022/12/05 01:48:18;;;;;;;50.60;28.13;;;5.60;95.30;;;;;;5050829;28;20032;-74
2022/12/05 01:50:44;;;;;;;54.33;30.27;;;5.70;95.80;;;;;;5047015;28;20033;-76
2022/12/05 01:53:10;;;;;;;51.65;26.15;;;5.70;96.00;;;;;;5048213;28;20025;-76
2022/12/05 01:55:37;;;;;;;63.45;35.72;;;5.70;96.10;;;;;;5027532;28;20498;-75
2022/12/05 01:58:05;;;;;;;44.67;24.58;;;5.70;95.90;;;;;;5040158;28;20506;-74
2022/12/05 02:00:31;;;;;;;60.67;35.67;;;5.70;95.90;;;;;;5023774;28;20126;-74
2022/12/05 02:03:05;;;;;;;60.22;35.20;;;5.70;95.70;;;;;;5041705;28;20035;-75
2022/12/05 02:05:33;;;;;;;56.88;32.05;;;5.70;95.70;;;;;;5048697;28;20025;-74
2022/12/05 02:08:06;;;;;;;54.72;31.60;;;5.70;95.50;;;;;;5040821;28;20037;-74
2022/12/05 02:10:38;;;;;;;56.35;30.48;;;5.80;95.50;;;;;;5049214;28;20040;-73
2022/12/05 02:13:49;;;;;;;51.90;29.67;;;5.80;95.40;;;;;;5043665;28;20091;-75
2022/12/05 02:16:29;;;;;;;36.33;21.27;;;5.80;95.50;;;;;;5037288;28;20025;-74
2022/12/05 02:19:24;;;;;;;53.05;28.95;;;5.80;95.80;;;;;;5039745;28;20021;-75
2022/12/05 02:22:02;;;;;;;40.53;21.52;;;5.70;95.60;;;;;;4998583;28;20069;-74
2022/12/05 02:24:51;;;;;;;61.65;34.08;;;5.70;95.60;;;;;;5042331;28;20024;-75
2022/12/05 02:27:45;;;;;;;53.33;29.48;;;5.70;95.50;;;;;;5047268;28;20128;-75
2022/12/05 02:30:21;;;;;;;45.03;26.75;;;5.70;95.50;;;;;;5049131;28;20037;-75
2022/12/05 02:32:55;;;;;;;30.50;16.90;;;5.70;95.50;;;;;;5041060;28;20017;-75
2022/12/05 02:35:50;;;;;;;55.38;31.13;;;5.80;96.00;;;;;;5048984;28;20029;-73
2022/12/05 02:38:39;;;;;;;44.22;26.02;;;5.80;95.90;;;;;;5041753;28;20082;-75
2022/12/05 02:41:39;;;;;;;47.95;26.30;;;5.80;95.80;;;;;;5043237;28;20021;-74
2022/12/05 02:44:23;;;;;;;41.92;24.45;;;5.80;95.70;;;;;;5048717;28;20017;-74
2022/12/05 02:46:51;;;;;;;47.20;27.10;;;5.80;95.60;;;;;;5039191;28;20029;-74
2022/12/05 02:49:22;;;;;;;61.92;35.28;;;5.80;95.50;;;;;;5030320;28;20144;-74
2022/12/05 02:51:53;;;;;;;46.10;25.85;;;5.80;95.50;;;;;;5051074;28;20040;-75
2022/12/05 02:54:24;;;;;;;56.63;31.23;;;5.80;95.50;;;;;;5048116;28;20028;-74
2022/12/05 02:56:52;;;;;;;50.60;29.38;;;5.90;95.50;;;;;;5051004;28;20028;-74
2022/12/05 02:59:18;;;;;;;53.20;31.42;;;5.90;95.30;;;;;;5040824;28;20419;-74
2022/12/05 03:01:48;;;;;;;52.08;29.77;;;5.90;95.10;;;;;;5051554;28;20028;-74
2022/12/05 03:04:15;;;;;;;41.83;21.75;;;6.00;95.20;;;;;;5042239;28;20025;-74
2022/12/05 03:06:45;;;;;;;62.70;34.47;;;6.00;95.40;;;;;;5050044;28;20035;-73
2022/12/05 03:09:16;;;;;;;36.42;21.38;;;6.00;95.40;;;;;;5043735;28;20502;-74
2022/12/05 03:11:46;;;;;;;;;;;6.10;95.30;;;;;;5003935;28;20083;-74
2022/12/05 03:14:13;;;;;;;;;;;6.00;95.30;;;;;;5043632;28;19905;-74
2022/12/05 03:16:51;;;;;;;33.38;18.35;;;6.10;95.40;;;;;;5049168;28;19904;-75
2022/12/05 03:19:48;;;;;;;54.28;31.35;;;6.00;95.30;;;;;;5045942;28;20036;-75
2022/12/05 03:22:37;;;;;;;50.72;29.20;;;6.00;95.40;;;;;;5009683;28;20041;-75
2022/12/05 03:25:03;;;;;;;49.83;27.35;;;5.90;95.40;;;;;;5028734;28;20063;-75
2022/12/05 03:27:49;;;;;;;59.38;33.35;;;5.90;95.40;;;;;;5050672;28;20032;-74
2022/12/05 03:30:21;;;;;;;45.17;26.17;;;6.00;95.50;;;;;;5032240;28;20365;-74
2022/12/05 03:33:02;;;;;;;49.08;27.20;;;5.90;95.40;;;;;;5055117;28;20025;-74
2022/12/05 03:35:49;;;;;;;43.13;24.13;;;6.00;95.60;;;;;;5032782;28;20021;-74
2022/12/05 03:38:20;;;;;;;47.35;26.10;;;6.00;95.50;;;;;;5054151;28;20391;-74
2022/12/05 03:41:07;;;;;;;54.15;29.67;;;6.00;95.60;;;;;;5053674;28;20037;-75
2022/12/05 03:43:54;;;;;;;41.10;24.10;;;6.10;95.60;;;;;;5047509;28;20021;-74
2022/12/05 03:46:29;;;;;;;45.40;22.52;;;6.10;95.50;;;;;;5046750;28;20376;-74
2022/12/05 03:49:10;;;;;;;52.33;29.42;;;6.10;95.60;;;;;;5034789;28;20074;-74
2022/12/05 03:52:05;;;;;;;46.80;27.83;;;6.10;95.50;;;;;;5045168;28;20041;-74
2022/12/05 03:54:38;;;;;;;40.42;23.20;;;6.00;95.40;;;;;;5022494;28;20052;-76
2022/12/05 03:57:16;;;;;;;32.67;19.48;;;6.00;95.60;;;;;;5050064;28;20027;-74
2022/12/05 03:59:53;;;;;;;46.38;26.80;;;6.00;95.80;;;;;;5051023;28;20486;-74
2022/12/05 04:02:34;;;;;;;47.50;27.52;;;6.10;95.90;;;;;;5041060;28;20090;-74
2022/12/05 04:05:08;;;;;;;55.25;31.98;;;6.10;95.80;;;;;;5050973;28;20021;-74
2022/12/05 04:07:38;;;;;;;33.13;17.70;;;6.10;95.70;;;;;;5043404;28;20029;-75
2022/12/05 04:10:17;;;;;;;42.28;24.45;;;6.10;95.70;;;;;;5050604;28;20540;-75
2022/12/05 04:12:45;;;;;;;28.45;17.75;;;6.20;95.80;;;;;;5033004;28;20052;-75
2022/12/05 04:15:19;;;;;;;39.35;24.50;;;6.20;95.90;;;;;;5050037;28;20079;-75
2022/12/05 04:17:50;;;;;;;53.28;31.45;;;6.20;95.70;;;;;;5051573;28;20022;-75
2022/12/05 04:23:22;;;;;;;31.77;17.60;;;6.10;95.40;;;;;;5044640;28;20040;-75
2022/12/05 04:26:07;;;;;;;45.90;26.00;;;6.20;95.50;;;;;;5049924;28;20021;-75
2022/12/05 04:28:37;;;;;;;37.70;21.38;;;6.20;95.40;;;;;;5052119;28;20029;-75
2022/12/05 04:31:07;;;;;;;42.22;24.98;;;6.20;95.50;;;;;;5031370;28;20033;-75
2022/12/05 04:33:53;;;;;;;47.35;27.63;;;6.20;95.50;;;;;;5051310;28;20546;-75
2022/12/05 04:36:24;;;;;;;46.22;27.13;;;6.20;95.50;;;;;;5034305;28;20026;-75
2022/12/05 04:38:53;;;;;;;47.08;28.70;;;6.30;95.40;;;;;;5052116;28;20025;-75
2022/12/05 04:41:24;;;;;;;41.40;23.33;;;6.30;95.40;;;;;;5050696;28;20048;-74
2022/12/05 04:43:53;;;;;;;35.33;19.60;;;6.20;95.20;;;;;;5048302;28;20029;-75
2022/12/05 04:46:21;;;;;;;30.33;16.48;;;6.20;95.30;;;;;;5050514;28;20108;-75
2022/12/05 04:48:51;;;;;;;45.15;28.25;;;6.20;95.50;;;;;;5046191;28;20028;-74
2022/12/05 04:51:19;;;;;;;;;;;6.20;95.50;;;;;;5032679;28;20037;-75
2022/12/05 04:53:48;;;;;;;36.80;22.13;;;6.30;95.70;;;;;;5051915;28;19904;-74
2022/12/05 04:56:18;;;;;;;44.10;27.10;;;6.20;95.70;;;;;;5051850;28;20021;-75
2022/12/05 04:58:44;;;;;;;40.42;23.70;;;6.20;95.60;;;;;;5048618;28;20043;-74
2022/12/05 05:01:17;;;;;;;44.90;25.52;;;6.20;95.50;;;;;;5052725;28;20395;-74
2022/12/05 05:03:51;;;;;;;47.03;28.48;;;6.20;95.50;;;;;;5033628;28;20021;-73
2022/12/05 05:06:17;;;;;;;43.10;25.58;;;6.20;95.50;;;;;;5052668;28;20092;-74
2022/12/05 05:08:49;;;;;;;42.83;22.02;;;6.20;95.40;;;;;;5043309;28;20226;-74
2022/12/05 05:11:17;;;;;;;49.10;28.85;;;6.20;95.60;;;;;;5030764;28;20033;-74
2022/12/05 05:13:43;;;;;;;35.35;23.85;;;6.30;95.70;;;;;;5040188;28;20035;-74
2022/12/05 05:16:17;;;;;;;36.90;21.48;;;6.30;95.50;;;;;;5052495;28;20438;-75
2022/12/05 05:18:44;;;;;;;44.85;26.52;;;6.30;95.50;;;;;;5046679;28;20024;-75
2022/12/05 05:21:30;;;;;;;48.78;28.02;;;6.30;95.50;;;;;;5052477;28;20099;-74
2022/12/05 05:23:57;;;;;;;33.72;21.50;;;6.30;95.30;;;;;;5046770;28;20029;-75
2022/12/05 05:26:24;;;;;;;30.75;17.77;;;6.40;95.50;;;;;;5035972;28;20037;-74
2022/12/05 05:28:50;;;;;;;39.85;24.70;;;6.40;95.80;;;;;;5049624;28;20031;-74
2022/12/05 05:31:17;;;;;;;46.58;27.70;;;6.40;95.60;;;;;;5032517;28;20060;-73
2022/12/05 05:33:43;;;;;;;33.70;21.85;;;6.40;95.50;;;;;;5044267;28;20454;-73
2022/12/05 05:36:11;;;;;;;33.35;21.38;;;6.50;95.50;;;;;;5048767;28;20099;-74
2022/12/05 05:38:41;;;;;;;40.35;24.73;;;6.40;95.30;;;;;;5042757;28;20060;-74
2022/12/05 05:41:16;;;;;;;40.65;23.85;;;6.40;95.20;;;;;;5023883;28;20029;-74
2022/12/05 05:43:42;;;;;;;34.10;22.17;;;6.50;95.10;;;;;;5045990;28;20029;-73
2022/12/05 05:46:08;;;;;;;38.03;22.42;;;6.50;95.20;;;;;;5042629;28;20052;-74
2022/12/05 05:48:37;;;;;;;41.00;25.80;;;6.50;95.20;;;;;;5046335;28;20018;-74
2022/12/05 05:51:04;;;;;;;25.25;14.77;;;6.50;95.10;;;;;;5040493;28;20075;-75
2022/12/05 05:53:31;;;;;;;28.42;16.83;;;6.50;95.40;;;;;;5047789;28;20112;-75
2022/12/05 05:55:56;;;;;;;35.50;22.67;;;6.50;95.50;;;;;;5049116;28;20487;-73
2022/12/05 05:58:22;;;;;;;40.30;25.63;;;6.50;95.30;;;;;;5032238;28;20025;-75
2022/12/05 06:00:48;;;;;;;35.15;21.48;;;6.50;95.20;;;;;;5040408;28;20104;-73
2022/12/05 06:03:14;;;;;;;29.90;18.95;;;6.50;95.30;;;;;;5032377;28;20021;-75
2022/12/05 06:05:40;;;;;;;40.78;24.85;;;6.40;95.40;;;;;;5041670;28;20021;-73
2022/12/05 06:08:05;;;;;;;38.80;25.38;;;6.50;95.70;;;;;;5049925;28;20021;-75
2022/12/05 06:10:31;;;;;;;40.55;26.23;;;6.50;95.60;;;;;;5046740;28;20032;-75
2022/12/05 06:12:58;;;;;;;34.92;20.92;;;6.50;95.50;;;;;;5045039;28;20061;-75
2022/12/05 06:15:24;;;;;;;28.70;18.23;;;6.50;95.50;;;;;;5049114;28;20024;-74
2022/12/05 06:17:50;;;;;;;33.20;21.83;;;6.50;95.50;;;;;;5032425;28;20021;-75
2022/12/05 06:20:15;;;;;;;33.80;21.35;;;6.50;95.40;;;;;;5047633;28;20499;-75
2022/12/05 06:22:41;;;;;;;36.15;22.90;;;6.50;95.30;;;;;;5048722;28;20463;-74
2022/12/05 06:25:07;;;;;;;31.55;19.90;;;6.50;95.30;;;;;;5046158;28;20030;-74
2022/12/05 06:27:36;;;;;;;43.65;28.58;;;6.50;95.10;;;;;;5045056;28;20036;-75
2022/12/05 06:30:02;;;;;;;32.53;19.92;;;6.50;95.10;;;;;;5044958;28;20080;-75
2022/12/05 06:32:28;;;;;;;32.00;22.15;;;6.50;95.00;;;;;;5026976;28;20480;-75
2022/12/05 06:34:54;;;;;;;32.53;21.83;;;6.50;95.10;;;;;;5029123;28;20056;-74
2022/12/05 06:37:20;;;;;;;35.33;22.80;;;6.50;95.30;;;;;;5040433;28;20052;-74
2022/12/05 06:39:46;;;;;;;38.03;24.55;;;6.50;95.20;;;;;;5048252;28;20064;-75
2022/12/05 06:42:11;;;;;;;38.97;23.70;;;6.40;95.20;;;;;;5045331;28;20575;-75
2022/12/05 06:44:37;;;;;;;29.90;18.42;;;6.50;95.30;;;;;;5049284;28;20017;-74
2022/12/05 06:47:03;;;;;;;38.65;24.35;;;6.50;95.50;;;;;;5043167;28;20032;-74
2022/12/05 06:49:31;;;;;;;28.20;17.83;;;6.50;95.50;;;;;;5037811;28;20037;-74
2022/12/05 06:51:58;;;;;;;40.20;27.52;;;6.50;95.50;;;;;;5045357;28;20085;-74
2022/12/05 06:54:24;;;;;;;43.10;29.30;;;6.50;95.50;;;;;;5039863;28;20025;-74
2022/12/05 06:56:49;;;;;;;40.53;26.23;;;6.50;95.50;;;;;;5035832;28;20364;-73
2022/12/05 06:59:15;;;;;;;31.42;17.95;;;6.60;95.40;;;;;;5030389;28;20029;-73
2022/12/05 07:01:41;;;;;;;29.52;18.30;;;6.50;95.40;;;;;;5037271;28;20024;-75
2022/12/05 07:04:14;;;;;;;28.33;17.20;;;6.50;95.40;;;;;;5045933;28;20021;-74
2022/12/05 07:06:40;;;;;;;35.50;24.17;;;6.50;95.50;;;;;;5045427;28;20025;-73
2022/12/05 07:09:06;;;;;;;41.38;26.63;;;6.50;95.50;;;;;;5036493;28;20022;-74
2022/12/05 07:11:32;;;;;;;43.63;27.02;;;6.50;95.40;;;;;;5029704;28;20392;-74
2022/12/05 07:13:59;;;;;;;36.33;24.63;;;6.50;95.20;;;;;;5052841;28;20025;-75
2022/12/05 07:16:25;;;;;;;33.42;22.05;;;6.60;95.30;;;;;;5052796;28;20027;-74
2022/12/05 07:18:50;;;;;;;35.20;23.70;;;6.60;95.20;;;;;;5052892;28;20047;-73
2022/12/05 07:21:16;;;;;;;40.08;26.42;;;6.60;95.30;;;;;;5038122;28;20021;-74
2022/12/05 07:23:43;;;;;;;34.60;24.52;;;6.60;95.20;;;;;;5040862;28;20048;-74
2022/12/05 07:26:12;;;;;;;40.85;26.23;;;6.70;95.10;;;;;;5050261;28;20033;-73
2022/12/05 07:28:38;;;;;;;40.55;26.25;;;6.70;94.90;;;;;;5047457;28;20033;-74
2022/12/05 07:31:10;;;;;;;42.70;26.42;;;6.70;94.80;;;;;;5039831;28;20083;-73
2022/12/05 07:33:36;;;;;;;27.27;17.08;;;6.70;94.80;;;;;;5049504;28;20491;-74
2022/12/05 07:36:11;;;;;;;35.88;24.33;;;6.80;94.80;;;;;;5050199;28;20028;-75
2022/12/05 07:38:37;;;;;;;25.60;15.85;;;6.80;94.70;;;;;;5049263;28;20528;-74
2022/12/05 07:41:13;;;;;;;28.73;19.70;;;6.80;94.90;;;;;;5028646;28;20151;-74
2022/12/05 07:43:40;;;;;;;35.90;21.67;;;6.70;94.80;;;;;;5046309;28;20036;-73
2022/12/05 07:46:07;;;;;;;32.05;20.83;;;6.70;94.80;;;;;;5028125;28;20586;-75
2022/12/05 07:48:34;;;;;;;33.35;22.20;;;6.70;94.70;;;;;;5023868;28;20530;-75
2022/12/05 07:51:04;;;;;;;27.17;17.50;;;6.80;94.70;;;;;;5050789;28;20087;-74
2022/12/05 07:53:31;;;;;;;32.90;23.55;;;6.90;94.80;;;;;;5050645;28;20083;-75
2022/12/05 07:56:02;;;;;;;34.25;21.63;;;6.90;94.60;;;;;;5050445;28;20025;-74
2022/12/05 07:58:28;;;;;;;31.73;21.85;;;6.90;94.50;;;;;;5030025;28;20070;-74
2022/12/05 08:00:55;;;;;;;32.00;21.45;;;6.90;94.40;;;;;;5038091;28;20025;-76
2022/12/05 08:03:20;;;;;;;27.98;17.92;;;7.00;94.40;;;;;;5046542;28;20553;-74
2022/12/05 08:05:46;;;;;;;26.92;18.63;;;7.00;95.30;;;;;;5046706;28;20033;-75
2022/12/05 08:08:12;;;;;;;29.73;20.10;;;7.00;95.00;;;;;;5044481;28;20056;-75
2022/12/05 08:10:37;;;;;;;27.15;18.50;;;7.10;94.80;;;;;;5043285;28;20099;-76
2022/12/05 08:13:03;;;;;;;33.42;22.05;;;7.10;94.70;;;;;;5041462;28;20053;-75
2022/12/05 08:15:29;;;;;;;33.80;22.35;;;7.10;94.60;;;;;;5047367;28;20545;-76
2022/12/05 08:17:55;;;;;;;31.70;21.42;;;7.00;94.40;;;;;;5026938;28;20033;-75
2022/12/05 08:20:20;;;;;;;41.65;27.83;;;7.00;94.30;;;;;;5026303;28;20017;-75
2022/12/05 08:22:46;;;;;;;33.15;22.33;;;7.00;94.30;;;;;;5042597;28;20022;-75
2022/12/05 08:25:12;;;;;;;37.00;25.70;;;7.00;94.30;;;;;;5041370;28;20039;-75
2022/12/05 08:27:37;;;;;;;34.63;24.35;;;6.90;94.50;;;;;;5050548;28;20032;-74
2022/12/05 08:30:04;;;;;;;30.77;20.75;;;6.90;94.60;;;;;;5043315;28;20044;-74
2022/12/05 08:32:29;;;;;;;37.50;26.25;;;6.80;94.60;;;;;;5052778;28;20063;-75
2022/12/05 08:34:55;;;;;;;36.70;24.90;;;6.90;94.60;;;;;;5049721;28;20052;-75
2022/12/05 08:37:21;;;;;;;34.17;23.58;;;6.90;94.50;;;;;;5047358;28;20024;-73
2022/12/05 08:39:47;;;;;;;38.63;23.67;;;6.90;94.50;;;;;;5046550;28;20020;-73
2022/12/05 08:42:13;;;;;;;44.78;29.48;;;6.90;94.50;;;;;;5046632;28;20032;-74
2022/12/05 08:44:38;;;;;;;42.13;27.45;;;7.00;94.80;;;;;;5044943;28;20138;-75
2022/12/05 08:47:04;;;;;;;47.53;30.38;;;7.00;94.60;;;;;;5040385;28;20478;-74
2022/12/05 08:49:30;;;;;;;42.35;27.55;;;7.00;94.40;;;;;;5042363;28;20057;-75
2022/12/05 08:51:55;;;;;;;35.50;20.15;;;7.10;94.60;;;;;;5042957;28;20018;-75
2022/12/05 08:54:21;;;;;;;43.55;29.58;;;7.10;94.60;;;;;;5039066;28;20272;-73
2022/12/05 08:56:50;;;;;;;27.17;17.02;;;7.10;94.50;;;;;;5042088;28;20407;-74
2022/12/05 08:59:16;;;;;;;39.05;25.08;;;7.10;94.90;;;;;;5040448;28;20037;-73
2022/12/05 09:01:41;;;;;;;46.25;30.50;;;7.10;94.90;;;;;;5044658;28;20021;-74
2022/12/05 09:04:07;;;;;;;37.08;24.90;;;7.00;94.70;;;;;;5048368;28;20100;-76
2022/12/05 09:06:34;;;;;;;42.53;28.58;;;7.10;94.60;;;;;;5044493;28;20017;-76
2022/12/05 09:09:03;;;;;;;43.63;27.80;;;7.10;94.60;;;;;;5025994;28;20113;-74
2022/12/05 09:11:32;;;;;;;39.65;26.23;;;7.10;94.50;;;;;;5023327;28;20144;-75
2022/12/05 09:13:59;;;;;;;36.28;21.98;;;7.10;94.60;;;;;;5048181;28;20020;-74
2022/12/05 09:16:31;;;;;;;43.38;28.55;;;7.00;94.60;;;;;;5037527;28;20024;-75
2022/12/05 09:18:57;;;;;;;35.67;21.90;;;7.10;94.70;;;;;;5036269;28;20075;-75
2022/12/05 09:21:26;;;;;;;30.88;19.60;;;7.10;95.00;;;;;;5040549;28;20055;-75
2022/12/05 09:23:53;;;;;;;43.05;26.15;;;7.10;94.70;;;;;;5025524;28;20395;-75
2022/12/05 09:26:25;;;;;;;40.67;26.52;;;7.10;94.70;;;;;;5045403;28;20047;-75
2022/12/05 09:28:52;;;;;;;39.45;26.25;;;7.00;94.70;;;;;;5048724;28;20111;-74
2022/12/05 09:31:24;;;;;;;45.88;27.88;;;7.10;94.70;;;;;;5048461;28;20030;-75
2022/12/05 09:33:52;;;;;;;46.33;27.27;;;7.00;94.50;;;;;;5037551;28;20503;-75
2022/12/05 09:36:20;;;;;;;42.75;26.48;;;7.00;94.60;;;;;;5046031;28;20017;-77
2022/12/05 09:38:46;;;;;;;44.95;26.40;;;7.00;94.60;;;;;;5031144;28;20028;-74
2022/12/05 09:41:14;;;;;;;47.25;27.08;;;7.00;94.60;;;;;;5047065;28;20021;-74
2022/12/05 09:43:57;;;;;;;49.38;27.33;;;7.00;94.70;;;;;;5031833;28;20251;-74
2022/12/05 09:46:44;;;;;;;54.05;30.55;;;7.00;94.70;;;;;;5045268;28;20032;-75
2022/12/05 09:49:12;;;;;;;39.67;22.92;;;7.00;94.70;;;;;;5043145;28;20029;-74
2022/12/05 09:51:40;;;;;;;44.60;27.92;;;7.20;94.70;;;;;;5029296;28;20108;-74
2022/12/05 09:54:09;;;;;;;51.03;31.17;;;7.20;94.60;;;;;;5042278;28;20029;-75
2022/12/05 09:56:34;;;;;;;50.95;30.48;;;7.20;94.50;;;;;;5036226;28;20035;-73
2022/12/05 09:59:00;;;;;;;46.53;28.02;;;7.20;94.40;;;;;;5034330;28;20033;-74
2022/12/05 10:01:45;;;;;;;56.90;32.55;;;7.20;94.40;;;;;;5041497;28;20021;-74
2022/12/05 10:04:45;;;;;;;54.13;30.92;;;7.30;94.40;;;;;;5029066;28;20547;-74
2022/12/05 10:07:29;;;;;;;43.05;24.55;;;7.30;94.30;;;;;;5023638;28;20041;-74
2022/12/05 10:10:01;;;;;;;55.50;30.65;;;7.30;94.20;;;;;;5041550;28;20555;-74
2022/12/05 10:12:49;;;;;;;52.72;29.10;;;7.30;94.30;;;;;;5043861;28;20045;-75
2022/12/05 10:15:25;;;;;;;45.28;26.50;;;7.30;94.40;;;;;;5045107;28;20658;-75
2022/12/05 10:18:09;;;;;;;44.67;27.92;;;7.30;94.30;;;;;;5041382;28;20127;-74
2022/12/05 10:20:57;;;;;;;46.75;26.73;;;7.40;94.30;;;;;;5032793;28;20049;-73
2022/12/05 10:23:37;;;;;;;45.95;26.08;;;7.30;94.20;;;;;;5042023;28;20033;-74
2022/12/05 10:26:08;;;;;;;46.97;27.33;;;7.40;94.20;;;;;;5032488;28;20022;-75
2022/12/05 10:28:40;;;;;;;49.08;29.23;;;7.40;94.30;;;;;;5016722;28;20072;-75
2022/12/05 10:31:13;;;;;;;48.78;28.48;;;7.50;94.30;;;;;;5031118;28;20040;-73
2022/12/05 10:33:54;;;;;;;52.03;30.65;;;7.40;94.30;;;;;;5033603;28;20048;-73
2022/12/05 10:36:23;;;;;;;51.40;29.33;;;7.50;94.30;;;;;;5036340;28;20445;-74
2022/12/05 10:38:49;;;;;;;53.42;30.90;;;7.50;94.20;;;;;;5039117;28;20053;-76
2022/12/05 10:41:16;;;;;;;43.22;25.83;;;7.50;94.10;;;;;;5044005;28;20029;-75
2022/12/05 10:43:44;;;;;;;45.38;28.45;;;7.50;94.10;;;;;;5035169;28;20117;-74
2022/12/05 10:46:12;;;;;;;46.40;27.35;;;7.50;94.10;;;;;;5042528;28;20030;-75
2022/12/05 10:48:40;;;;;;;42.17;23.77;;;7.50;94.20;;;;;;5022393;28;20448;-74
2022/12/05 10:51:09;;;;;;;45.90;27.55;;;7.60;94.20;;;;;;5045662;28;20103;-74
2022/12/05 10:53:43;;;;;;;50.80;29.73;;;7.60;94.20;;;;;;5045168;28;20033;-75
2022/12/05 10:56:38;;;;;;;47.20;28.08;;;7.60;94.20;;;;;;5040265;28;20491;-75
2022/12/05 10:59:05;;;;;;;41.60;25.35;;;7.60;94.20;;;;;;5042238;28;20104;-75
2022/12/05 11:01:31;;;;;;;46.70;27.60;;;7.60;94.10;;;;;;5025470;28;20021;-75
2022/12/05 11:03:59;;;;;;;45.13;27.30;;;7.60;94.10;;;;;;5047064;28;20029;-74
2022/12/05 11:06:30;;;;;;;38.60;23.25;;;7.70;94.10;;;;;;5043096;28;20049;-74
2022/12/05 11:09:14;;;;;;;46.85;29.48;;;7.60;94.10;;;;;;5016515;28;20506;-74
2022/12/05 11:11:40;;;;;;;47.47;26.45;;;7.70;94.10;;;;;;5040706;28;20053;-74
2022/12/05 11:14:24;;;;;;;49.47;29.52;;;7.70;94.10;;;;;;5027552;28;20380;-74
2022/12/05 11:16:58;;;;;;;44.20;27.80;;;7.70;94.10;;;;;;5038172;28;20025;-74
2022/12/05 11:19:35;;;;;;;45.55;28.73;;;7.70;94.00;;;;;;5022524;28;20100;-75
2022/12/05 11:22:02;;;;;;;40.08;25.55;;;7.70;94.00;;;;;;5027486;28;20025;-74
2022/12/05 11:24:33;;;;;;;44.75;26.17;;;7.80;94.00;;;;;;5041463;28;20023;-74
2022/12/05 11:27:15;;;;;;;40.95;24.55;;;7.80;94.00;;;;;;5025551;28;20025;-75
2022/12/05 11:29:59;;;;;;;38.85;23.95;;;7.80;94.00;;;;;;5040311;28;20697;-74
2022/12/05 11:32:28;;;;;;;38.88;23.75;;;7.80;93.90;;;;;;5027396;28;20037;-74
2022/12/05 11:35:09;;;;;;;38.75;24.50;;;7.90;93.90;;;;;;5040825;28;20075;-74
2022/12/05 11:37:54;;;;;;;;;;;7.90;93.90;;;;;;5037841;28;20024;-75
2022/12/05 11:40:58;;;;;;;36.08;21.58;;;7.90;93.70;;;;;;5037584;28;19943;-75
2022/12/05 11:43:37;;;;;;;41.55;24.63;;;7.90;93.60;;;;;;5037097;28;20029;-74
2022/12/05 11:46:14;;;;;;;33.97;20.13;;;7.90;93.60;;;;;;5039917;28;20053;-75
2022/12/05 11:48:54;;;;;;;39.42;25.48;;;7.90;93.60;;;;;;5037956;28;20060;-75
2022/12/05 11:51:52;;;;;;;34.08;21.73;;;7.90;93.70;;;;;;5038542;28;20044;-75
2022/12/05 11:54:56;;;;;;;34.00;21.83;;;8.00;93.70;;;;;;5036830;28;20505;-74
2022/12/05 11:57:59;;;;;;;32.60;21.95;;;7.90;93.60;;;;;;5012930;28;20029;-75
2022/12/05 12:00:46;;;;;;;31.52;21.23;;;7.90;93.60;;;;;;5032184;28;20033;-75
2022/12/05 12:03:51;;;;;;;34.08;20.45;;;8.00;93.60;;;;;;5039306;28;20028;-74
2022/12/05 12:06:25;;;;;;;36.13;23.00;;;8.00;93.60;;;;;;5029508;28;20112;-74
2022/12/05 12:09:07;;;;;;;36.33;21.67;;;8.00;93.60;;;;;;5044613;28;20078;-74
2022/12/05 12:11:52;;;;;;;34.42;21.60;;;8.00;93.60;;;;;;5034589;28;20053;-74
2022/12/05 12:14:52;;;;;;;30.38;19.92;;;8.00;93.60;;;;;;5038203;28;20030;-72
2022/12/05 12:17:32;;;;;;;34.60;22.10;;;8.00;93.50;;;;;;5042501;28;20029;-74
2022/12/05 12:20:46;;;;;;;39.28;23.73;;;8.00;93.50;;;;;;5049030;28;20036;-72
2022/12/05 12:23:40;;;;;;;36.53;24.15;;;8.00;93.50;;;;;;5018091;28;20029;-73
2022/12/05 12:26:39;;;;;;;32.15;21.75;;;8.00;93.50;;;;;;5049010;28;20033;-73
2022/12/05 12:29:17;;;;;;;28.45;21.15;;;7.90;93.40;;;;;;5046402;28;20076;-76
2022/12/05 12:32:07;;;;;;;28.23;21.20;;;7.90;93.50;;;;;;5046887;28;20033;-75
2022/12/05 12:34:48;;;;;;;23.20;18.15;;;7.80;93.50;;;;;;5043335;28;20383;-73
2022/12/05 12:37:46;;;;;;;22.58;17.92;;;7.80;93.50;;;;;;5021479;28;20036;-75
2022/12/05 12:40:51;;;;;;;22.05;16.63;;;7.70;93.50;;;;;;5015744;28;20102;-75
2022/12/05 12:43:45;;;;;;;22.75;17.30;;;7.70;93.50;;;;;;5045103;28;20036;-75
2022/12/05 12:47:18;;;;;;;23.23;16.63;;;7.50;93.40;;;;;;5051931;28;20033;-77
2022/12/05 12:49:37;;;;;;;22.27;16.58;;;7.50;93.70;;;;;;5033505;28;20596;-75
2022/12/05 12:52:11;;;;;;;22.83;17.50;;;7.40;93.70;;;;;;5026256;28;20063;-75
2022/12/05 12:54:55;;;;;;;24.75;17.73;;;7.40;93.80;;;;;;5036269;28;20063;-75
2022/12/05 12:58:08;;;;;;;23.38;17.90;;;7.40;93.80;;;;;;5044748;28;20033;-75
2022/12/05 13:00:55;;;;;;;25.83;18.13;;;7.40;93.70;;;;;;4998538;28;20026;-74
2022/12/05 13:03:35;;;;;;;24.08;16.40;;;7.40;93.80;;;;;;5040161;28;20995;-73
2022/12/05 13:06:06;;;;;;;;;;;7.40;93.80;;;;;;5032816;28;20029;-72
2022/12/05 13:08:48;;;;;;;21.95;16.17;;;7.40;93.80;;;;;;5028853;28;20387;-72